sensor_id;sensor_type;location;lat;lon;timestamp;pressure;altitude;pressure_sealevel;temperature;humidity
55486;BME280;71262;-25.924;28.194;2023-09-30T00:02:02;85295.38;;;18.70;42.62
55486;BME280;71262;-25.924;28.194;2023-09-30T00:04:27;85295.19;;;18.91;42.24
55486;BME280;71262;-25.924;28.194;2023-09-30T00:06:52;85296.11;;;19.14;41.93
55486;BME280;71262;-25.924;28.194;2023-09-30T00:09:17;85297.72;;;19.12;41.92
55486;BME280;71262;-25.924;28.194;2023-09-30T00:11:42;85298.93;;;18.98;41.74
55486;BME280;71262;-25.924;28.194;2023-09-30T00:14:07;85295.29;;;19.34;40.08
55486;BME280;71262;-25.924;28.194;2023-09-30T00:16:33;85292.88;;;18.87;42.89
55486;BME280;71262;-25.924;28.194;2023-09-30T00:18:58;85290.00;;;18.65;42.93
55486;BME280;71262;-25.924;28.194;2023-09-30T00:21:24;85284.86;;;18.93;42.49
55486;BME280;71262;-25.924;28.194;2023-09-30T00:23:50;85282.37;;;19.18;42.10
55486;BME280;71262;-25.924;28.194;2023-09-30T00:26:15;85280.36;;;18.83;42.23
55486;BME280;71262;-25.924;28.194;2023-09-30T00:28:40;85283.32;;;18.99;42.33
55486;BME280;71262;-25.924;28.194;2023-09-30T00:31:07;85284.73;;;18.98;42.03
55486;BME280;71262;-25.924;28.194;2023-09-30T00:33:30;85284.43;;;19.21;41.06
55486;BME280;71262;-25.924;28.194;2023-09-30T00:35:55;85282.56;;;18.81;42.02
55486;BME280;71262;-25.924;28.194;2023-09-30T00:38:21;85281.67;;;18.59;42.96
55486;BME280;71262;-25.924;28.194;2023-09-30T00:40:49;85279.21;;;18.79;42.61
55486;BME280;71262;-25.924;28.194;2023-09-30T00:43:18;85279.40;;;18.79;42.24
55486;BME280;71262;-25.924;28.194;2023-09-30T00:45:37;85282.84;;;18.86;42.11
55486;BME280;71262;-25.924;28.194;2023-09-30T00:48:02;85282.87;;;19.20;41.94
55486;BME280;71262;-25.924;28.194;2023-09-30T00:50:26;85280.02;;;18.98;41.93
55486;BME280;71262;-25.924;28.194;2023-09-30T00:52:51;85279.84;;;19.09;41.42
55486;BME280;71262;-25.924;28.194;2023-09-30T00:55:17;85274.65;;;19.24;39.77
55486;BME280;71262;-25.924;28.194;2023-09-30T00:57:42;85269.75;;;19.05;42.67
55486;BME280;71262;-25.924;28.194;2023-09-30T01:00:08;85261.62;;;18.71;42.67
55486;BME280;71262;-25.924;28.194;2023-09-30T01:02:32;85259.98;;;18.73;42.60
55486;BME280;71262;-25.924;28.194;2023-09-30T01:04:59;85255.24;;;18.83;42.45
55486;BME280;71262;-25.924;28.194;2023-09-30T01:07:23;85259.80;;;19.20;41.95
55486;BME280;71262;-25.924;28.194;2023-09-30T01:09:48;85260.63;;;18.70;41.93
55486;BME280;71262;-25.924;28.194;2023-09-30T01:12:14;85257.16;;;19.23;41.57
55486;BME280;71262;-25.924;28.194;2023-09-30T01:14:39;85257.98;;;18.91;41.63
55486;BME280;71262;-25.924;28.194;2023-09-30T01:17:05;85258.14;;;18.94;39.24
55486;BME280;71262;-25.924;28.194;2023-09-30T01:19:30;85257.30;;;18.73;42.80
55486;BME280;71262;-25.924;28.194;2023-09-30T01:21:55;85254.44;;;18.83;42.55
55486;BME280;71262;-25.924;28.194;2023-09-30T01:24:21;85252.18;;;18.73;42.61
55486;BME280;71262;-25.924;28.194;2023-09-30T01:26:46;85254.07;;;18.81;42.48
55486;BME280;71262;-25.924;28.194;2023-09-30T01:29:11;85253.22;;;19.00;42.23
55486;BME280;71262;-25.924;28.194;2023-09-30T01:31:36;85253.52;;;18.93;42.02
55486;BME280;71262;-25.924;28.194;2023-09-30T01:34:01;85251.67;;;19.32;42.10
55486;BME280;71262;-25.924;28.194;2023-09-30T01:36:26;85250.32;;;18.89;42.09
55486;BME280;71262;-25.924;28.194;2023-09-30T01:38:51;85244.20;;;18.68;40.40
55486;BME280;71262;-25.924;28.194;2023-09-30T01:41:17;85245.71;;;18.43;43.40
55486;BME280;71262;-25.924;28.194;2023-09-30T01:43:42;85245.61;;;18.64;43.18
55486;BME280;71262;-25.924;28.194;2023-09-30T01:46:07;85244.94;;;18.51;43.05
55486;BME280;71262;-25.924;28.194;2023-09-30T01:48:33;85244.13;;;18.88;42.49
55486;BME280;71262;-25.924;28.194;2023-09-30T01:50:58;85243.05;;;18.91;42.45
55486;BME280;71262;-25.924;28.194;2023-09-30T01:53:23;85240.82;;;18.97;42.33
55486;BME280;71262;-25.924;28.194;2023-09-30T01:55:48;85241.33;;;19.11;42.14
55486;BME280;71262;-25.924;28.194;2023-09-30T01:58:13;85238.47;;;19.19;42.01
55486;BME280;71262;-25.924;28.194;2023-09-30T02:00:38;85233.32;;;19.03;40.75
55486;BME280;71262;-25.924;28.194;2023-09-30T02:03:04;85230.29;;;18.71;43.18
55486;BME280;71262;-25.924;28.194;2023-09-30T02:05:29;85229.56;;;18.61;43.28
55486;BME280;71262;-25.924;28.194;2023-09-30T02:07:55;85229.08;;;18.59;42.92
55486;BME280;71262;-25.924;28.194;2023-09-30T02:10:20;85229.77;;;18.67;42.77
55486;BME280;71262;-25.924;28.194;2023-09-30T02:12:45;85231.44;;;18.71;42.74
55486;BME280;71262;-25.924;28.194;2023-09-30T02:15:11;85228.34;;;19.00;42.31
55486;BME280;71262;-25.924;28.194;2023-09-30T02:17:35;85227.88;;;18.96;42.34
55486;BME280;71262;-25.924;28.194;2023-09-30T02:20:00;85226.93;;;19.14;42.07
55486;BME280;71262;-25.924;28.194;2023-09-30T02:22:26;85228.60;;;19.01;41.92
55486;BME280;71262;-25.924;28.194;2023-09-30T02:24:51;85227.63;;;19.05;39.99
55486;BME280;71262;-25.924;28.194;2023-09-30T02:27:16;85223.46;;;18.68;43.33
55486;BME280;71262;-25.924;28.194;2023-09-30T02:29:42;85220.41;;;18.68;43.12
55486;BME280;71262;-25.924;28.194;2023-09-30T02:32:07;85220.39;;;18.19;42.71
55486;BME280;71262;-25.924;28.194;2023-09-30T02:34:32;85218.44;;;19.13;42.34
55486;BME280;71262;-25.924;28.194;2023-09-30T02:36:57;85214.80;;;19.11;42.35
55486;BME280;71262;-25.924;28.194;2023-09-30T02:39:23;85213.84;;;18.68;42.63
55486;BME280;71262;-25.924;28.194;2023-09-30T02:41:48;85214.94;;;18.80;42.50
55486;BME280;71262;-25.924;28.194;2023-09-30T02:44:14;85211.55;;;18.85;42.40
55486;BME280;71262;-25.924;28.194;2023-09-30T02:46:39;85209.72;;;19.01;42.18
55486;BME280;71262;-25.924;28.194;2023-09-30T02:49:04;85206.89;;;19.11;39.97
55486;BME280;71262;-25.924;28.194;2023-09-30T02:51:29;85211.86;;;18.75;42.78
55486;BME280;71262;-25.924;28.194;2023-09-30T02:53:55;85214.61;;;18.98;42.98
55486;BME280;71262;-25.924;28.194;2023-09-30T02:56:19;85217.77;;;18.58;43.17
55486;BME280;71262;-25.924;28.194;2023-09-30T02:58:45;85218.88;;;18.64;43.16
55486;BME280;71262;-25.924;28.194;2023-09-30T03:01:11;85221.27;;;18.67;42.75
55486;BME280;71262;-25.924;28.194;2023-09-30T03:03:35;85218.56;;;18.72;42.68
55486;BME280;71262;-25.924;28.194;2023-09-30T03:06:00;85224.74;;;18.89;42.42
55486;BME280;71262;-25.924;28.194;2023-09-30T03:08:25;85226.97;;;19.04;42.18
55486;BME280;71262;-25.924;28.194;2023-09-30T03:10:51;85224.42;;;18.99;39.31
55486;BME280;71262;-25.924;28.194;2023-09-30T03:13:16;85229.74;;;18.59;43.56
55486;BME280;71262;-25.924;28.194;2023-09-30T03:15:41;85231.18;;;18.46;43.41
55486;BME280;71262;-25.924;28.194;2023-09-30T03:18:06;85231.48;;;18.61;42.81
55486;BME280;71262;-25.924;28.194;2023-09-30T03:20:31;85233.61;;;18.92;42.64
55486;BME280;71262;-25.924;28.194;2023-09-30T03:22:57;85235.54;;;18.73;42.58
55486;BME280;71262;-25.924;28.194;2023-09-30T03:25:21;85235.50;;;18.66;42.32
55486;BME280;71262;-25.924;28.194;2023-09-30T03:27:48;85238.45;;;19.01;41.82
55486;BME280;71262;-25.924;28.194;2023-09-30T03:30:13;85236.98;;;19.09;41.99
55486;BME280;71262;-25.924;28.194;2023-09-30T03:32:37;85244.09;;;18.93;41.85
55486;BME280;71262;-25.924;28.194;2023-09-30T03:35:03;85245.01;;;19.00;41.78
55486;BME280;71262;-25.924;28.194;2023-09-30T03:37:28;85245.01;;;19.04;39.87
55486;BME280;71262;-25.924;28.194;2023-09-30T03:39:54;85249.85;;;18.36;43.25
55486;BME280;71262;-25.924;28.194;2023-09-30T03:42:18;85246.67;;;18.58;43.05
55486;BME280;71262;-25.924;28.194;2023-09-30T03:44:43;85247.92;;;18.40;42.98
55486;BME280;71262;-25.924;28.194;2023-09-30T03:47:08;85248.71;;;18.56;42.72
55486;BME280;71262;-25.924;28.194;2023-09-30T03:49:34;85253.95;;;18.92;42.21
55486;BME280;71262;-25.924;28.194;2023-09-30T03:51:59;85256.62;;;19.08;41.96
55486;BME280;71262;-25.924;28.194;2023-09-30T03:54:24;85256.57;;;19.07;41.96
55486;BME280;71262;-25.924;28.194;2023-09-30T03:56:49;85256.03;;;18.77;42.05
55486;BME280;71262;-25.924;28.194;2023-09-30T03:59:14;85257.00;;;19.09;41.95
55486;BME280;71262;-25.924;28.194;2023-09-30T04:01:40;85258.35;;;19.07;40.14
55486;BME280;71262;-25.924;28.194;2023-09-30T04:04:05;85261.60;;;18.77;43.03
55486;BME280;71262;-25.924;28.194;2023-09-30T04:06:30;85262.12;;;18.52;42.87
55486;BME280;71262;-25.924;28.194;2023-09-30T04:08:55;85267.54;;;18.44;42.95
55486;BME280;71262;-25.924;28.194;2023-09-30T04:11:20;85271.74;;;18.74;42.53
55486;BME280;71262;-25.924;28.194;2023-09-30T04:13:45;85278.75;;;18.93;42.22
55486;BME280;71262;-25.924;28.194;2023-09-30T04:16:10;85279.30;;;19.08;42.00
55486;BME280;71262;-25.924;28.194;2023-09-30T04:18:35;85280.84;;;18.91;40.46
55486;BME280;71262;-25.924;28.194;2023-09-30T04:21:01;85282.51;;;19.26;42.34
55486;BME280;71262;-25.924;28.194;2023-09-30T04:23:26;85283.48;;;18.72;42.93
55486;BME280;71262;-25.924;28.194;2023-09-30T04:25:51;85292.43;;;18.83;42.43
55486;BME280;71262;-25.924;28.194;2023-09-30T04:28:17;85296.71;;;19.05;42.10
55486;BME280;71262;-25.924;28.194;2023-09-30T04:30:43;85301.70;;;19.24;41.85
55486;BME280;71262;-25.924;28.194;2023-09-30T04:33:08;85306.64;;;18.86;40.09
55486;BME280;71262;-25.924;28.194;2023-09-30T04:35:33;85305.80;;;18.91;42.79
55486;BME280;71262;-25.924;28.194;2023-09-30T04:37:58;85314.18;;;18.47;43.24
55486;BME280;71262;-25.924;28.194;2023-09-30T04:40:23;85312.16;;;18.71;42.87
55486;BME280;71262;-25.924;28.194;2023-09-30T04:42:49;85312.83;;;19.22;42.16
55486;BME280;71262;-25.924;28.194;2023-09-30T04:45:14;85314.07;;;19.12;40.47
55486;BME280;71262;-25.924;28.194;2023-09-30T04:47:39;85316.86;;;18.96;42.81
55486;BME280;71262;-25.924;28.194;2023-09-30T04:50:05;85323.36;;;18.74;43.10
55486;BME280;71262;-25.924;28.194;2023-09-30T04:52:29;85321.36;;;18.70;42.83
55486;BME280;71262;-25.924;28.194;2023-09-30T04:54:55;85324.27;;;19.30;41.83
55486;BME280;71262;-25.924;28.194;2023-09-30T04:57:19;85328.65;;;18.85;40.87
55486;BME280;71262;-25.924;28.194;2023-09-30T04:59:44;85332.45;;;18.59;44.00
55486;BME280;71262;-25.924;28.194;2023-09-30T05:02:10;85333.34;;;18.88;43.54
55486;BME280;71262;-25.924;28.194;2023-09-30T05:04:35;85331.52;;;19.15;42.03
55486;BME280;71262;-25.924;28.194;2023-09-30T05:07:00;85340.17;;;18.86;41.75
55486;BME280;71262;-25.924;28.194;2023-09-30T05:09:26;85342.55;;;18.70;44.22
55486;BME280;71262;-25.924;28.194;2023-09-30T05:11:51;85349.30;;;18.92;43.85
55486;BME280;71262;-25.924;28.194;2023-09-30T05:14:16;85345.25;;;19.01;41.52
55486;BME280;71262;-25.924;28.194;2023-09-30T05:16:41;85351.95;;;18.71;43.45
55486;BME280;71262;-25.924;28.194;2023-09-30T05:19:07;85354.03;;;18.97;44.45
55486;BME280;71262;-25.924;28.194;2023-09-30T05:21:32;85355.91;;;18.82;43.78
55486;BME280;71262;-25.924;28.194;2023-09-30T05:23:58;85355.96;;;18.82;41.78
55486;BME280;71262;-25.924;28.194;2023-09-30T05:26:23;85363.22;;;18.76;45.07
55486;BME280;71262;-25.924;28.194;2023-09-30T05:28:49;85362.88;;;18.75;44.41
55486;BME280;71262;-25.924;28.194;2023-09-30T05:31:14;85358.20;;;18.92;41.44
55486;BME280;71262;-25.924;28.194;2023-09-30T05:33:39;85362.31;;;18.80;43.63
55486;BME280;71262;-25.924;28.194;2023-09-30T05:36:05;85362.94;;;18.95;45.53
55486;BME280;71262;-25.924;28.194;2023-09-30T05:38:30;85362.64;;;18.86;43.64
55486;BME280;71262;-25.924;28.194;2023-09-30T05:40:55;85364.14;;;18.85;41.94
55486;BME280;71262;-25.924;28.194;2023-09-30T05:43:21;85368.09;;;18.95;46.00
55486;BME280;71262;-25.924;28.194;2023-09-30T05:45:46;85366.75;;;18.63;45.26
55486;BME280;71262;-25.924;28.194;2023-09-30T05:48:12;85369.02;;;18.89;42.06
55486;BME280;71262;-25.924;28.194;2023-09-30T05:50:38;85369.11;;;19.03;43.81
55486;BME280;71262;-25.924;28.194;2023-09-30T05:53:03;85361.64;;;19.04;45.49
55486;BME280;71262;-25.924;28.194;2023-09-30T05:55:28;85367.00;;;18.89;42.81
55486;BME280;71262;-25.924;28.194;2023-09-30T05:57:54;85367.89;;;18.91;43.45
55486;BME280;71262;-25.924;28.194;2023-09-30T06:00:18;85364.87;;;18.87;44.51
55486;BME280;71262;-25.924;28.194;2023-09-30T06:02:44;85363.96;;;18.78;45.16
55486;BME280;71262;-25.924;28.194;2023-09-30T06:05:09;85362.05;;;18.81;45.39
55486;BME280;71262;-25.924;28.194;2023-09-30T06:07:34;85366.37;;;18.64;45.51
55486;BME280;71262;-25.924;28.194;2023-09-30T06:09:59;85367.00;;;19.08;45.65
55486;BME280;71262;-25.924;28.194;2023-09-30T06:12:24;85366.63;;;18.92;45.61
55486;BME280;71262;-25.924;28.194;2023-09-30T06:14:50;85365.70;;;19.03;45.44
55486;BME280;71262;-25.924;28.194;2023-09-30T06:17:15;85362.26;;;18.72;45.25
55486;BME280;71262;-25.924;28.194;2023-09-30T06:19:41;85361.89;;;19.24;45.20
55486;BME280;71262;-25.924;28.194;2023-09-30T06:22:06;85366.95;;;19.21;45.22
55486;BME280;71262;-25.924;28.194;2023-09-30T06:24:32;85366.51;;;19.35;45.05
55486;BME280;71262;-25.924;28.194;2023-09-30T06:26:58;85367.21;;;18.89;44.94
55486;BME280;71262;-25.924;28.194;2023-09-30T06:29:23;85369.94;;;18.98;44.80
55486;BME280;71262;-25.924;28.194;2023-09-30T06:31:48;85370.23;;;19.37;44.63
55486;BME280;71262;-25.924;28.194;2023-09-30T06:34:14;85368.29;;;19.11;44.51
55486;BME280;71262;-25.924;28.194;2023-09-30T06:36:39;85371.17;;;19.30;44.18
55486;BME280;71262;-25.924;28.194;2023-09-30T06:39:05;85374.93;;;19.35;44.08
55486;BME280;71262;-25.924;28.194;2023-09-30T06:41:30;85373.13;;;19.82;44.26
55486;BME280;71262;-25.924;28.194;2023-09-30T06:43:55;85374.27;;;19.63;44.28
55486;BME280;71262;-25.924;28.194;2023-09-30T06:46:21;85370.71;;;19.65;44.31
55486;BME280;71262;-25.924;28.194;2023-09-30T06:48:46;85368.50;;;19.42;43.80
55486;BME280;71262;-25.924;28.194;2023-09-30T06:51:14;85371.07;;;19.34;44.27
55486;BME280;71262;-25.924;28.194;2023-09-30T06:53:37;85373.03;;;19.45;44.38
55486;BME280;71262;-25.924;28.194;2023-09-30T06:56:05;85374.33;;;19.50;44.29
55486;BME280;71262;-25.924;28.194;2023-09-30T06:58:27;85374.60;;;19.52;44.34
55486;BME280;71262;-25.924;28.194;2023-09-30T07:00:52;85378.08;;;19.58;43.52
55486;BME280;71262;-25.924;28.194;2023-09-30T07:03:18;85382.75;;;19.90;44.19
55486;BME280;71262;-25.924;28.194;2023-09-30T07:05:42;85387.98;;;19.60;44.26
55486;BME280;71262;-25.924;28.194;2023-09-30T07:08:08;85384.33;;;19.62;43.68
55486;BME280;71262;-25.924;28.194;2023-09-30T07:10:33;85384.68;;;19.57;44.24
55486;BME280;71262;-25.924;28.194;2023-09-30T07:13:01;85384.72;;;19.65;44.25
55486;BME280;71262;-25.924;28.194;2023-09-30T07:15:25;85386.10;;;19.67;44.18
55486;BME280;71262;-25.924;28.194;2023-09-30T07:17:50;85384.69;;;19.73;44.06
55486;BME280;71262;-25.924;28.194;2023-09-30T07:20:15;85385.50;;;19.76;43.39
55486;BME280;71262;-25.924;28.194;2023-09-30T07:22:41;85386.38;;;19.72;44.00
55486;BME280;71262;-25.924;28.194;2023-09-30T07:25:06;85388.60;;;19.69;44.15
55486;BME280;71262;-25.924;28.194;2023-09-30T07:27:31;85384.97;;;19.70;43.79
55486;BME280;71262;-25.924;28.194;2023-09-30T07:29:56;85382.91;;;19.55;44.06
55486;BME280;71262;-25.924;28.194;2023-09-30T07:32:21;85383.51;;;19.63;44.30
55486;BME280;71262;-25.924;28.194;2023-09-30T07:34:47;85387.27;;;19.75;44.11
55486;BME280;71262;-25.924;28.194;2023-09-30T07:37:13;85385.75;;;19.86;43.76
55486;BME280;71262;-25.924;28.194;2023-09-30T07:39:38;85380.50;;;19.80;43.80
55486;BME280;71262;-25.924;28.194;2023-09-30T07:42:03;85379.27;;;19.75;44.23
55486;BME280;71262;-25.924;28.194;2023-09-30T07:44:28;85379.02;;;19.98;43.87
55486;BME280;71262;-25.924;28.194;2023-09-30T07:46:54;85378.02;;;19.96;43.84
55486;BME280;71262;-25.924;28.194;2023-09-30T07:49:19;85375.75;;;19.84;43.60
55486;BME280;71262;-25.924;28.194;2023-09-30T07:51:45;85376.08;;;19.94;43.97
55486;BME280;71262;-25.924;28.194;2023-09-30T07:54:10;85375.59;;;19.81;44.28
55486;BME280;71262;-25.924;28.194;2023-09-30T07:56:36;85373.88;;;19.91;45.27
55486;BME280;71262;-25.924;28.194;2023-09-30T07:59:01;85374.60;;;19.97;45.71
55486;BME280;71262;-25.924;28.194;2023-09-30T08:01:27;85372.32;;;20.04;47.76
55486;BME280;71262;-25.924;28.194;2023-09-30T08:03:53;85370.12;;;19.96;48.99
55486;BME280;71262;-25.924;28.194;2023-09-30T08:06:18;85368.22;;;20.02;48.78
55486;BME280;71262;-25.924;28.194;2023-09-30T08:08:44;85370.39;;;20.25;49.73
55486;BME280;71262;-25.924;28.194;2023-09-30T08:11:10;85369.76;;;20.21;50.91
55486;BME280;71262;-25.924;28.194;2023-09-30T08:13:35;85369.19;;;20.09;50.43
55486;BME280;71262;-25.924;28.194;2023-09-30T08:16:00;85366.66;;;20.52;50.45
55486;BME280;71262;-25.924;28.194;2023-09-30T08:18:25;85367.87;;;20.42;50.82
55486;BME280;71262;-25.924;28.194;2023-09-30T08:20:50;85369.10;;;20.42;51.17
55486;BME280;71262;-25.924;28.194;2023-09-30T08:23:16;85365.16;;;20.23;51.12
55486;BME280;71262;-25.924;28.194;2023-09-30T08:25:42;85367.45;;;20.58;50.66
55486;BME280;71262;-25.924;28.194;2023-09-30T08:28:07;85363.74;;;20.63;49.95
55486;BME280;71262;-25.924;28.194;2023-09-30T08:30:33;85365.93;;;20.65;50.61
55486;BME280;71262;-25.924;28.194;2023-09-30T08:32:58;85361.89;;;20.59;50.21
55486;BME280;71262;-25.924;28.194;2023-09-30T08:35:23;85364.45;;;20.67;50.27
55486;BME280;71262;-25.924;28.194;2023-09-30T08:37:48;85358.59;;;20.26;50.05
55486;BME280;71262;-25.924;28.194;2023-09-30T08:40:14;85354.62;;;20.81;49.76
55486;BME280;71262;-25.924;28.194;2023-09-30T08:42:39;85351.04;;;20.43;49.40
55486;BME280;71262;-25.924;28.194;2023-09-30T08:45:05;85348.73;;;20.66;49.32
55486;BME280;71262;-25.924;28.194;2023-09-30T08:47:30;85345.21;;;20.62;49.52
55486;BME280;71262;-25.924;28.194;2023-09-30T08:49:58;85338.79;;;20.67;45.06
55486;BME280;71262;-25.924;28.194;2023-09-30T08:52:22;85336.22;;;21.37;42.90
55486;BME280;71262;-25.924;28.194;2023-09-30T08:54:47;85334.77;;;21.93;41.79
55486;BME280;71262;-25.924;28.194;2023-09-30T08:57:13;85328.82;;;21.96;41.32
55486;BME280;71262;-25.924;28.194;2023-09-30T08:59:38;85335.98;;;22.23;40.69
55486;BME280;71262;-25.924;28.194;2023-09-30T09:02:05;85328.69;;;22.47;40.10
55486;BME280;71262;-25.924;28.194;2023-09-30T09:04:29;85332.59;;;22.38;40.11
55486;BME280;71262;-25.924;28.194;2023-09-30T09:06:54;85322.94;;;22.27;39.96
55486;BME280;71262;-25.924;28.194;2023-09-30T09:09:19;85317.30;;;22.79;39.43
55486;BME280;71262;-25.924;28.194;2023-09-30T09:11:45;85315.94;;;22.41;38.57
55486;BME280;71262;-25.924;28.194;2023-09-30T09:14:10;85305.95;;;22.66;38.80
55486;BME280;71262;-25.924;28.194;2023-09-30T09:16:36;85306.39;;;22.62;38.76
55486;BME280;71262;-25.924;28.194;2023-09-30T09:21:26;85298.99;;;22.76;38.24
55486;BME280;71262;-25.924;28.194;2023-09-30T09:23:53;85293.05;;;22.92;37.95
55486;BME280;71262;-25.924;28.194;2023-09-30T09:26:25;85293.63;;;22.92;37.96
55486;BME280;71262;-25.924;28.194;2023-09-30T09:28:42;85286.79;;;22.98;37.91
55486;BME280;71262;-25.924;28.194;2023-09-30T09:33:36;85280.33;;;23.07;37.62
55486;BME280;71262;-25.924;28.194;2023-09-30T09:35:59;85278.53;;;23.03;37.58
55486;BME280;71262;-25.924;28.194;2023-09-30T09:38:24;85272.06;;;23.11;37.39
55486;BME280;71262;-25.924;28.194;2023-09-30T09:40:49;85266.36;;;22.65;37.29
55486;BME280;71262;-25.924;28.194;2023-09-30T09:43:14;85264.80;;;23.05;37.23
55486;BME280;71262;-25.924;28.194;2023-09-30T09:45:40;85262.83;;;22.89;36.70
55486;BME280;71262;-25.924;28.194;2023-09-30T09:48:06;85262.52;;;22.73;36.55
55486;BME280;71262;-25.924;28.194;2023-09-30T09:50:31;85260.01;;;22.91;36.34
55486;BME280;71262;-25.924;28.194;2023-09-30T09:52:56;85254.83;;;23.16;36.25
55486;BME280;71262;-25.924;28.194;2023-09-30T09:55:22;85250.79;;;22.94;36.73
55486;BME280;71262;-25.924;28.194;2023-09-30T09:57:47;85248.84;;;23.03;36.85
55486;BME280;71262;-25.924;28.194;2023-09-30T10:00:14;85251.64;;;22.82;36.29
55486;BME280;71262;-25.924;28.194;2023-09-30T10:02:40;85244.36;;;23.22;36.21
55486;BME280;71262;-25.924;28.194;2023-09-30T10:05:03;85242.25;;;23.04;36.37
55486;BME280;71262;-25.924;28.194;2023-09-30T10:07:30;85239.71;;;23.00;36.41
55486;BME280;71262;-25.924;28.194;2023-09-30T10:09:54;85237.75;;;22.97;36.05
55486;BME280;71262;-25.924;28.194;2023-09-30T10:12:19;85233.95;;;22.99;36.34
55486;BME280;71262;-25.924;28.194;2023-09-30T10:14:44;85227.15;;;23.02;36.04
55486;BME280;71262;-25.924;28.194;2023-09-30T10:17:10;85226.18;;;23.26;36.25
55486;BME280;71262;-25.924;28.194;2023-09-30T10:19:36;85216.26;;;23.27;36.22
55486;BME280;71262;-25.924;28.194;2023-09-30T10:24:30;85212.28;;;23.07;36.28
55486;BME280;71262;-25.924;28.194;2023-09-30T10:29:17;85207.64;;;23.07;35.84
55486;BME280;71262;-25.924;28.194;2023-09-30T10:31:49;85200.01;;;23.07;35.76
55486;BME280;71262;-25.924;28.194;2023-09-30T10:36:35;85194.05;;;23.31;35.76
55486;BME280;71262;-25.924;28.194;2023-09-30T10:38:59;85184.45;;;22.87;35.62
55486;BME280;71262;-25.924;28.194;2023-09-30T10:43:49;85182.61;;;23.35;35.64
55486;BME280;71262;-25.924;28.194;2023-09-30T10:48:39;85168.99;;;23.36;35.55
55486;BME280;71262;-25.924;28.194;2023-09-30T10:51:14;85165.63;;;23.38;35.35
55486;BME280;71262;-25.924;28.194;2023-09-30T10:53:30;85162.00;;;23.39;35.40
55486;BME280;71262;-25.924;28.194;2023-09-30T10:55:56;85153.69;;;23.18;35.26
55486;BME280;71262;-25.924;28.194;2023-09-30T10:58:21;85155.46;;;23.42;35.06
55486;BME280;71262;-25.924;28.194;2023-09-30T11:00:52;85152.72;;;23.20;35.24
55486;BME280;71262;-25.924;28.194;2023-09-30T11:03:12;85143.18;;;22.98;35.02
55486;BME280;71262;-25.924;28.194;2023-09-30T11:05:37;85138.47;;;23.22;35.22
55486;BME280;71262;-25.924;28.194;2023-09-30T11:08:03;85133.43;;;23.44;35.23
55486;BME280;71262;-25.924;28.194;2023-09-30T11:10:28;85131.16;;;23.45;34.94
55486;BME280;71262;-25.924;28.194;2023-09-30T11:12:57;85126.64;;;23.46;35.07
55486;BME280;71262;-25.924;28.194;2023-09-30T11:15:18;85125.77;;;23.48;34.76
55486;BME280;71262;-25.924;28.194;2023-09-30T11:17:44;85119.97;;;23.48;34.98
55486;BME280;71262;-25.924;28.194;2023-09-30T11:20:10;85114.75;;;23.06;34.40
55486;BME280;71262;-25.924;28.194;2023-09-30T11:22:34;85113.20;;;23.27;34.89
55486;BME280;71262;-25.924;28.194;2023-09-30T11:24:59;85111.64;;;23.51;34.86
55486;BME280;71262;-25.924;28.194;2023-09-30T11:27:24;85104.03;;;23.30;34.85
55486;BME280;71262;-25.924;28.194;2023-09-30T11:29:50;85103.27;;;23.49;34.78
55486;BME280;71262;-25.924;28.194;2023-09-30T11:34:40;85094.65;;;23.30;34.38
55486;BME280;71262;-25.924;28.194;2023-09-30T11:37:06;85096.76;;;23.52;34.67
55486;BME280;71262;-25.924;28.194;2023-09-30T11:39:31;85093.32;;;23.30;34.49
55486;BME280;71262;-25.924;28.194;2023-09-30T11:41:57;85090.58;;;23.54;34.50
55486;BME280;71262;-25.924;28.194;2023-09-30T11:44:22;85090.29;;;23.33;34.55
55486;BME280;71262;-25.924;28.194;2023-09-30T11:46:50;85084.12;;;23.33;34.52
55486;BME280;71262;-25.924;28.194;2023-09-30T11:49:12;85080.20;;;23.33;34.38
55486;BME280;71262;-25.924;28.194;2023-09-30T11:51:43;85072.99;;;23.35;34.44
55486;BME280;71262;-25.924;28.194;2023-09-30T11:54:03;85071.07;;;23.59;34.36
55486;BME280;71262;-25.924;28.194;2023-09-30T11:56:28;85067.80;;;23.58;34.37
55486;BME280;71262;-25.924;28.194;2023-09-30T11:58:54;85058.82;;;23.58;34.13
55486;BME280;71262;-25.924;28.194;2023-09-30T12:01:19;85052.97;;;23.57;34.36
55486;BME280;71262;-25.924;28.194;2023-09-30T12:03:44;85051.37;;;23.34;34.27
55486;BME280;71262;-25.924;28.194;2023-09-30T12:06:09;85049.71;;;23.58;34.25
55486;BME280;71262;-25.924;28.194;2023-09-30T12:08:35;85045.56;;;23.59;34.17
55486;BME280;71262;-25.924;28.194;2023-09-30T12:11:01;85044.39;;;23.58;34.17
55486;BME280;71262;-25.924;28.194;2023-09-30T12:13:26;85039.25;;;23.60;34.13
55486;BME280;71262;-25.924;28.194;2023-09-30T12:15:51;85037.34;;;23.60;34.15
55486;BME280;71262;-25.924;28.194;2023-09-30T12:18:17;85036.84;;;23.38;34.08
55486;BME280;71262;-25.924;28.194;2023-09-30T12:20:43;85032.79;;;23.37;34.10
55486;BME280;71262;-25.924;28.194;2023-09-30T12:23:08;85022.30;;;23.40;34.10
55486;BME280;71262;-25.924;28.194;2023-09-30T12:25:34;85023.77;;;23.61;33.97
55486;BME280;71262;-25.924;28.194;2023-09-30T12:27:59;85015.62;;;23.63;34.10
55486;BME280;71262;-25.924;28.194;2023-09-30T12:30:25;85013.17;;;23.89;34.16
55486;BME280;71262;-25.924;28.194;2023-09-30T12:32:50;85008.36;;;23.62;33.96
55486;BME280;71262;-25.924;28.194;2023-09-30T12:35:15;85007.70;;;23.62;33.68
55486;BME280;71262;-25.924;28.194;2023-09-30T12:37:40;85006.67;;;23.62;33.91
55486;BME280;71262;-25.924;28.194;2023-09-30T12:40:07;84999.08;;;23.62;34.05
55486;BME280;71262;-25.924;28.194;2023-09-30T12:42:31;84997.26;;;23.63;34.05
55486;BME280;71262;-25.924;28.194;2023-09-30T12:44:57;84999.02;;;23.18;33.48
55486;BME280;71262;-25.924;28.194;2023-09-30T12:47:22;84990.18;;;23.62;33.96
55486;BME280;71262;-25.924;28.194;2023-09-30T12:49:47;84992.42;;;23.41;33.87